sensor_id;sensor_type;location;lat;lon;timestamp;P1;durP1;ratioP1;P2;durP2;ratioP2
46753;SDS011;32500;50.620;3.400;2024-02-14T00:02:09;138.68;;;55.90;;
46753;SDS011;32500;50.620;3.400;2024-02-14T00:04:35;139.40;;;56.08;;
46753;SDS011;32500;50.620;3.400;2024-02-14T00:07:01;140.13;;;56.30;;
46753;SDS011;32500;50.620;3.400;2024-02-14T00:09:26;138.70;;;55.95;;
46753;SDS011;32500;50.620;3.400;2024-02-14T00:11:52;142.07;;;56.28;;
46753;SDS011;32500;50.620;3.400;2024-02-14T00:14:18;137.10;;;55.20;;
46753;SDS011;32500;50.620;3.400;2024-02-14T00:16:46;139.57;;;56.33;;
46753;SDS011;32500;50.620;3.400;2024-02-14T00:19:12;138.90;;;55.88;;
46753;SDS011;32500;50.620;3.400;2024-02-14T00:21:39;140.48;;;55.78;;
46753;SDS011;32500;50.620;3.400;2024-02-14T00:24:04;137.85;;;55.70;;
46753;SDS011;32500;50.620;3.400;2024-02-14T00:26:31;138.73;;;55.92;;
46753;SDS011;32500;50.620;3.400;2024-02-14T00:28:56;138.98;;;56.05;;
46753;SDS011;32500;50.620;3.400;2024-02-14T00:31:22;138.52;;;55.60;;
46753;SDS011;32500;50.620;3.400;2024-02-14T00:33:48;138.93;;;55.45;;
46753;SDS011;32500;50.620;3.400;2024-02-14T00:36:14;139.23;;;55.60;;
46753;SDS011;32500;50.620;3.400;2024-02-14T00:38:39;138.60;;;55.58;;
46753;SDS011;32500;50.620;3.400;2024-02-14T00:41:05;138.85;;;55.92;;
46753;SDS011;32500;50.620;3.400;2024-02-14T00:43:31;139.30;;;56.15;;
46753;SDS011;32500;50.620;3.400;2024-02-14T00:45:56;137.43;;;55.72;;
46753;SDS011;32500;50.620;3.400;2024-02-14T00:48:23;138.45;;;55.83;;
46753;SDS011;32500;50.620;3.400;2024-02-14T00:50:49;138.23;;;55.40;;
46753;SDS011;32500;50.620;3.400;2024-02-14T00:53:14;139.48;;;55.78;;
46753;SDS011;32500;50.620;3.400;2024-02-14T00:55:40;136.75;;;55.42;;
46753;SDS011;32500;50.620;3.400;2024-02-14T00:58:06;138.05;;;55.85;;
46753;SDS011;32500;50.620;3.400;2024-02-14T01:00:32;138.82;;;55.72;;
46753;SDS011;32500;50.620;3.400;2024-02-14T01:02:58;138.45;;;55.78;;
46753;SDS011;32500;50.620;3.400;2024-02-14T01:05:24;138.88;;;56.17;;
46753;SDS011;32500;50.620;3.400;2024-02-14T01:07:49;137.82;;;55.72;;
46753;SDS011;32500;50.620;3.400;2024-02-14T01:10:16;138.93;;;55.53;;
46753;SDS011;32500;50.620;3.400;2024-02-14T01:12:43;138.00;;;55.78;;
46753;SDS011;32500;50.620;3.400;2024-02-14T01:15:09;137.38;;;55.38;;
46753;SDS011;32500;50.620;3.400;2024-02-14T01:17:35;138.05;;;55.85;;
46753;SDS011;32500;50.620;3.400;2024-02-14T01:20:01;139.30;;;55.40;;
46753;SDS011;32500;50.620;3.400;2024-02-14T01:22:27;138.45;;;55.50;;
46753;SDS011;32500;50.620;3.400;2024-02-14T01:24:53;137.73;;;55.47;;
46753;SDS011;32500;50.620;3.400;2024-02-14T01:27:19;137.90;;;55.25;;
46753;SDS011;32500;50.620;3.400;2024-02-14T01:29:47;138.43;;;55.55;;
46753;SDS011;32500;50.620;3.400;2024-02-14T01:32:13;139.07;;;55.65;;
46753;SDS011;32500;50.620;3.400;2024-02-14T01:34:39;138.65;;;55.85;;
46753;SDS011;32500;50.620;3.400;2024-02-14T01:37:06;139.00;;;55.67;;
46753;SDS011;32500;50.620;3.400;2024-02-14T01:39:32;137.02;;;54.97;;
46753;SDS011;32500;50.620;3.400;2024-02-14T01:41:57;137.90;;;55.40;;
46753;SDS011;32500;50.620;3.400;2024-02-14T01:44:23;137.10;;;55.15;;
46753;SDS011;32500;50.620;3.400;2024-02-14T01:46:49;136.90;;;55.33;;
46753;SDS011;32500;50.620;3.400;2024-02-14T01:49:15;138.30;;;55.53;;
46753;SDS011;32500;50.620;3.400;2024-02-14T01:51:42;137.48;;;55.08;;
46753;SDS011;32500;50.620;3.400;2024-02-14T01:54:10;137.35;;;55.25;;
46753;SDS011;32500;50.620;3.400;2024-02-14T01:56:37;136.30;;;55.00;;
46753;SDS011;32500;50.620;3.400;2024-02-14T01:59:04;137.30;;;55.22;;
46753;SDS011;32500;50.620;3.400;2024-02-14T02:01:31;137.75;;;55.42;;
46753;SDS011;32500;50.620;3.400;2024-02-14T02:03:58;138.00;;;55.40;;
46753;SDS011;32500;50.620;3.400;2024-02-14T02:06:24;136.77;;;54.75;;
46753;SDS011;32500;50.620;3.400;2024-02-14T02:08:51;137.98;;;55.40;;
46753;SDS011;32500;50.620;3.400;2024-02-14T02:11:17;136.80;;;54.97;;
46753;SDS011;32500;50.620;3.400;2024-02-14T02:13:43;137.23;;;55.10;;
46753;SDS011;32500;50.620;3.400;2024-02-14T02:16:12;136.98;;;55.10;;
46753;SDS011;32500;50.620;3.400;2024-02-14T02:18:40;138.38;;;55.33;;
46753;SDS011;32500;50.620;3.400;2024-02-14T02:21:06;137.43;;;55.38;;
46753;SDS011;32500;50.620;3.400;2024-02-14T02:23:33;137.77;;;55.80;;
46753;SDS011;32500;50.620;3.400;2024-02-14T02:25:59;137.48;;;55.72;;
46753;SDS011;32500;50.620;3.400;2024-02-14T02:28:24;138.15;;;55.42;;
46753;SDS011;32500;50.620;3.400;2024-02-14T02:30:50;137.55;;;55.63;;
46753;SDS011;32500;50.620;3.400;2024-02-14T02:33:17;137.30;;;55.28;;
46753;SDS011;32500;50.620;3.400;2024-02-14T02:35:43;137.07;;;55.30;;
46753;SDS011;32500;50.620;3.400;2024-02-14T02:38:10;136.32;;;54.83;;
46753;SDS011;32500;50.620;3.400;2024-02-14T02:40:36;136.77;;;55.15;;
46753;SDS011;32500;50.620;3.400;2024-02-14T02:43:02;138.35;;;55.25;;
46753;SDS011;32500;50.620;3.400;2024-02-14T02:45:28;137.23;;;55.42;;
46753;SDS011;32500;50.620;3.400;2024-02-14T02:47:54;138.70;;;55.50;;
46753;SDS011;32500;50.620;3.400;2024-02-14T02:50:20;137.13;;;55.22;;
46753;SDS011;32500;50.620;3.400;2024-02-14T02:52:46;138.63;;;55.40;;
46753;SDS011;32500;50.620;3.400;2024-02-14T02:55:13;136.55;;;55.03;;
46753;SDS011;32500;50.620;3.400;2024-02-14T02:57:40;136.82;;;55.22;;
46753;SDS011;32500;50.620;3.400;2024-02-14T03:00:06;138.18;;;55.28;;
46753;SDS011;32500;50.620;3.400;2024-02-14T03:02:33;137.10;;;55.20;;
46753;SDS011;32500;50.620;3.400;2024-02-14T03:04:59;137.00;;;55.08;;
46753;SDS011;32500;50.620;3.400;2024-02-14T03:07:25;138.40;;;55.40;;
46753;SDS011;32500;50.620;3.400;2024-02-14T03:09:51;137.45;;;55.00;;
46753;SDS011;32500;50.620;3.400;2024-02-14T03:12:17;136.73;;;54.88;;
46753;SDS011;32500;50.620;3.400;2024-02-14T03:14:43;137.63;;;55.15;;
46753;SDS011;32500;50.620;3.400;2024-02-14T03:17:09;137.13;;;55.25;;
46753;SDS011;32500;50.620;3.400;2024-02-14T03:19:35;137.70;;;55.42;;
46753;SDS011;32500;50.620;3.400;2024-02-14T03:22:04;137.88;;;55.60;;
46753;SDS011;32500;50.620;3.400;2024-02-14T03:24:34;137.18;;;55.20;;
46753;SDS011;32500;50.620;3.400;2024-02-14T03:27:02;138.07;;;55.50;;
46753;SDS011;32500;50.620;3.400;2024-02-14T03:29:29;138.23;;;55.55;;
46753;SDS011;32500;50.620;3.400;2024-02-14T03:31:55;137.10;;;55.13;;
46753;SDS011;32500;50.620;3.400;2024-02-14T03:34:23;138.10;;;55.42;;
46753;SDS011;32500;50.620;3.400;2024-02-14T03:36:50;137.23;;;55.30;;
46753;SDS011;32500;50.620;3.400;2024-02-14T03:39:16;137.15;;;55.28;;
46753;SDS011;32500;50.620;3.400;2024-02-14T03:41:42;137.40;;;55.55;;
46753;SDS011;32500;50.620;3.400;2024-02-14T03:44:08;136.63;;;55.10;;
46753;SDS011;32500;50.620;3.400;2024-02-14T03:46:34;136.85;;;55.33;;
46753;SDS011;32500;50.620;3.400;2024-02-14T03:49:03;136.32;;;55.20;;
46753;SDS011;32500;50.620;3.400;2024-02-14T03:51:28;137.10;;;55.30;;
46753;SDS011;32500;50.620;3.400;2024-02-14T03:53:54;136.93;;;55.45;;
46753;SDS011;32500;50.620;3.400;2024-02-14T03:56:20;137.13;;;55.13;;
46753;SDS011;32500;50.620;3.400;2024-02-14T03:58:46;136.57;;;54.88;;
46753;SDS011;32500;50.620;3.400;2024-02-14T04:01:12;137.25;;;55.53;;
46753;SDS011;32500;50.620;3.400;2024-02-14T04:03:38;136.77;;;55.03;;
46753;SDS011;32500;50.620;3.400;2024-02-14T04:06:04;136.48;;;55.28;;
46753;SDS011;32500;50.620;3.400;2024-02-14T04:08:30;137.90;;;55.17;;
46753;SDS011;32500;50.620;3.400;2024-02-14T04:10:56;137.10;;;55.30;;
46753;SDS011;32500;50.620;3.400;2024-02-14T04:13:21;137.32;;;55.55;;
46753;SDS011;32500;50.620;3.400;2024-02-14T04:15:47;137.52;;;55.35;;
46753;SDS011;32500;50.620;3.400;2024-02-14T04:18:13;137.60;;;55.65;;
46753;SDS011;32500;50.620;3.400;2024-02-14T04:20:43;137.85;;;55.30;;
46753;SDS011;32500;50.620;3.400;2024-02-14T04:23:09;136.35;;;54.92;;
46753;SDS011;32500;50.620;3.400;2024-02-14T04:25:35;138.13;;;55.25;;
46753;SDS011;32500;50.620;3.400;2024-02-14T04:28:04;137.30;;;55.38;;
46753;SDS011;32500;50.620;3.400;2024-02-14T04:30:30;137.80;;;55.63;;
46753;SDS011;32500;50.620;3.400;2024-02-14T04:32:56;137.88;;;55.30;;
46753;SDS011;32500;50.620;3.400;2024-02-14T04:35:22;137.25;;;55.40;;
46753;SDS011;32500;50.620;3.400;2024-02-14T04:37:48;136.73;;;55.25;;
46753;SDS011;32500;50.620;3.400;2024-02-14T04:40:14;136.98;;;55.13;;
46753;SDS011;32500;50.620;3.400;2024-02-14T04:42:40;136.50;;;55.15;;
46753;SDS011;32500;50.620;3.400;2024-02-14T04:45:06;137.23;;;55.05;;
46753;SDS011;32500;50.620;3.400;2024-02-14T04:47:33;137.65;;;55.22;;
46753;SDS011;32500;50.620;3.400;2024-02-14T04:49:59;137.30;;;55.13;;
46753;SDS011;32500;50.620;3.400;2024-02-14T04:52:25;137.35;;;55.55;;
46753;SDS011;32500;50.620;3.400;2024-02-14T04:54:51;137.32;;;55.22;;
46753;SDS011;32500;50.620;3.400;2024-02-14T04:57:17;138.25;;;55.00;;
46753;SDS011;32500;50.620;3.400;2024-02-14T04:59:45;137.23;;;54.65;;
46753;SDS011;32500;50.620;3.400;2024-02-14T05:02:10;136.77;;;54.70;;
46753;SDS011;32500;50.620;3.400;2024-02-14T05:04:36;137.13;;;54.63;;
46753;SDS011;32500;50.620;3.400;2024-02-14T05:07:05;137.70;;;54.47;;
46753;SDS011;32500;50.620;3.400;2024-02-14T05:09:30;136.80;;;55.00;;
46753;SDS011;32500;50.620;3.400;2024-02-14T05:11:56;136.38;;;54.35;;
46753;SDS011;32500;50.620;3.400;2024-02-14T05:14:22;137.38;;;54.33;;
46753;SDS011;32500;50.620;3.400;2024-02-14T05:16:48;136.35;;;54.60;;
46753;SDS011;32500;50.620;3.400;2024-02-14T05:19:14;136.52;;;54.50;;
46753;SDS011;32500;50.620;3.400;2024-02-14T05:21:39;137.25;;;54.70;;
46753;SDS011;32500;50.620;3.400;2024-02-14T05:24:05;136.75;;;54.72;;
46753;SDS011;32500;50.620;3.400;2024-02-14T05:26:31;136.15;;;54.45;;
46753;SDS011;32500;50.620;3.400;2024-02-14T05:28:57;137.23;;;54.58;;
46753;SDS011;32500;50.620;3.400;2024-02-14T05:31:24;138.93;;;54.45;;
46753;SDS011;32500;50.620;3.400;2024-02-14T05:33:50;135.93;;;54.28;;
46753;SDS011;32500;50.620;3.400;2024-02-14T05:36:15;136.75;;;54.65;;
46753;SDS011;32500;50.620;3.400;2024-02-14T05:38:42;137.23;;;54.72;;
46753;SDS011;32500;50.620;3.400;2024-02-14T05:41:08;137.95;;;54.75;;
46753;SDS011;32500;50.620;3.400;2024-02-14T05:43:35;138.70;;;54.47;;
46753;SDS011;32500;50.620;3.400;2024-02-14T05:46:01;136.48;;;54.47;;
46753;SDS011;32500;50.620;3.400;2024-02-14T05:48:26;139.60;;;54.88;;
46753;SDS011;32500;50.620;3.400;2024-02-14T05:50:52;140.48;;;54.80;;
46753;SDS011;32500;50.620;3.400;2024-02-14T05:53:18;138.23;;;54.42;;
46753;SDS011;32500;50.620;3.400;2024-02-14T05:55:43;140.20;;;54.92;;
46753;SDS011;32500;50.620;3.400;2024-02-14T05:58:09;137.25;;;54.35;;
46753;SDS011;32500;50.620;3.400;2024-02-14T06:00:35;137.90;;;54.92;;
46753;SDS011;32500;50.620;3.400;2024-02-14T06:03:00;138.55;;;54.85;;
46753;SDS011;32500;50.620;3.400;2024-02-14T06:05:27;138.02;;;54.42;;
46753;SDS011;32500;50.620;3.400;2024-02-14T06:07:52;136.55;;;54.33;;
46753;SDS011;32500;50.620;3.400;2024-02-14T06:10:18;137.57;;;54.83;;
46753;SDS011;32500;50.620;3.400;2024-02-14T06:12:44;137.10;;;54.78;;
46753;SDS011;32500;50.620;3.400;2024-02-14T06:15:11;138.93;;;54.35;;
46753;SDS011;32500;50.620;3.400;2024-02-14T06:17:36;141.25;;;54.85;;
46753;SDS011;32500;50.620;3.400;2024-02-14T06:20:02;138.95;;;54.83;;
46753;SDS011;32500;50.620;3.400;2024-02-14T06:22:31;141.48;;;55.20;;
46753;SDS011;32500;50.620;3.400;2024-02-14T06:24:57;138.18;;;54.85;;
46753;SDS011;32500;50.620;3.400;2024-02-14T06:27:23;139.60;;;55.38;;
46753;SDS011;32500;50.620;3.400;2024-02-14T06:29:49;139.85;;;54.78;;
46753;SDS011;32500;50.620;3.400;2024-02-14T06:32:14;140.30;;;55.10;;
46753;SDS011;32500;50.620;3.400;2024-02-14T06:34:40;142.32;;;55.35;;
46753;SDS011;32500;50.620;3.400;2024-02-14T06:37:06;139.40;;;55.08;;
46753;SDS011;32500;50.620;3.400;2024-02-14T06:39:31;140.55;;;55.17;;
46753;SDS011;32500;50.620;3.400;2024-02-14T06:41:57;139.85;;;55.40;;
46753;SDS011;32500;50.620;3.400;2024-02-14T06:44:23;140.65;;;55.28;;
46753;SDS011;32500;50.620;3.400;2024-02-14T06:46:49;139.57;;;55.10;;
46753;SDS011;32500;50.620;3.400;2024-02-14T06:49:15;137.85;;;54.83;;
46753;SDS011;32500;50.620;3.400;2024-02-14T06:51:42;140.55;;;55.42;;
46753;SDS011;32500;50.620;3.400;2024-02-14T06:54:08;139.88;;;55.15;;
46753;SDS011;32500;50.620;3.400;2024-02-14T06:56:34;142.40;;;55.15;;
46753;SDS011;32500;50.620;3.400;2024-02-14T06:59:00;139.27;;;55.17;;
46753;SDS011;32500;50.620;3.400;2024-02-14T07:01:27;140.35;;;55.20;;
46753;SDS011;32500;50.620;3.400;2024-02-14T07:03:53;140.73;;;55.42;;
46753;SDS011;32500;50.620;3.400;2024-02-14T07:06:19;139.20;;;55.17;;
46753;SDS011;32500;50.620;3.400;2024-02-14T07:08:45;140.27;;;55.00;;
46753;SDS011;32500;50.620;3.400;2024-02-14T07:11:12;139.60;;;54.70;;
46753;SDS011;32500;50.620;3.400;2024-02-14T07:13:38;140.02;;;54.85;;
46753;SDS011;32500;50.620;3.400;2024-02-14T07:16:03;140.95;;;54.97;;
46753;SDS011;32500;50.620;3.400;2024-02-14T07:18:29;137.55;;;54.70;;
46753;SDS011;32500;50.620;3.400;2024-02-14T07:20:55;137.20;;;54.88;;
46753;SDS011;32500;50.620;3.400;2024-02-14T07:23:21;143.30;;;54.78;;
46753;SDS011;32500;50.620;3.400;2024-02-14T07:25:46;137.13;;;54.47;;
46753;SDS011;32500;50.620;3.400;2024-02-14T07:28:12;137.32;;;54.75;;
46753;SDS011;32500;50.620;3.400;2024-02-14T07:30:38;137.95;;;54.83;;
46753;SDS011;32500;50.620;3.400;2024-02-14T07:33:04;142.93;;;55.03;;
46753;SDS011;32500;50.620;3.400;2024-02-14T07:35:29;140.45;;;55.17;;
46753;SDS011;32500;50.620;3.400;2024-02-14T07:37:57;139.18;;;54.67;;
46753;SDS011;32500;50.620;3.400;2024-02-14T07:40:22;138.80;;;55.05;;
46753;SDS011;32500;50.620;3.400;2024-02-14T07:42:48;140.90;;;54.85;;
46753;SDS011;32500;50.620;3.400;2024-02-14T07:45:14;139.35;;;55.05;;
46753;SDS011;32500;50.620;3.400;2024-02-14T07:47:40;138.18;;;55.00;;
46753;SDS011;32500;50.620;3.400;2024-02-14T07:50:06;140.77;;;55.17;;
46753;SDS011;32500;50.620;3.400;2024-02-14T07:52:32;138.57;;;54.83;;
46753;SDS011;32500;50.620;3.400;2024-02-14T07:54:58;141.00;;;55.60;;
46753;SDS011;32500;50.620;3.400;2024-02-14T07:57:24;141.85;;;56.05;;
46753;SDS011;32500;50.620;3.400;2024-02-14T07:59:53;142.50;;;56.00;;
46753;SDS011;32500;50.620;3.400;2024-02-14T08:02:21;140.50;;;56.10;;
46753;SDS011;32500;50.620;3.400;2024-02-14T08:04:47;142.27;;;56.25;;
46753;SDS011;32500;50.620;3.400;2024-02-14T08:07:12;142.68;;;56.38;;
46753;SDS011;32500;50.620;3.400;2024-02-14T08:09:38;141.90;;;56.78;;
46753;SDS011;32500;50.620;3.400;2024-02-14T08:12:04;144.25;;;56.30;;
46753;SDS011;32500;50.620;3.400;2024-02-14T08:14:30;142.15;;;56.05;;
46753;SDS011;32500;50.620;3.400;2024-02-14T08:16:56;144.57;;;56.20;;
46753;SDS011;32500;50.620;3.400;2024-02-14T08:19:23;144.63;;;55.80;;
46753;SDS011;32500;50.620;3.400;2024-02-14T08:21:49;140.88;;;55.83;;
46753;SDS011;32500;50.620;3.400;2024-02-14T08:24:14;141.60;;;55.95;;
46753;SDS011;32500;50.620;3.400;2024-02-14T08:26:40;141.20;;;56.17;;
46753;SDS011;32500;50.620;3.400;2024-02-14T08:29:06;144.18;;;55.95;;
46753;SDS011;32500;50.620;3.400;2024-02-14T08:31:32;140.15;;;55.45;;
46753;SDS011;32500;50.620;3.400;2024-02-14T08:33:58;143.55;;;55.90;;
46753;SDS011;32500;50.620;3.400;2024-02-14T08:36:24;142.68;;;56.08;;
46753;SDS011;32500;50.620;3.400;2024-02-14T08:38:49;141.05;;;56.17;;
46753;SDS011;32500;50.620;3.400;2024-02-14T08:41:15;140.57;;;55.67;;
46753;SDS011;32500;50.620;3.400;2024-02-14T08:43:40;141.93;;;56.08;;
46753;SDS011;32500;50.620;3.400;2024-02-14T08:46:12;143.85;;;56.40;;
46753;SDS011;32500;50.620;3.400;2024-02-14T08:48:38;141.27;;;55.85;;
46753;SDS011;32500;50.620;3.400;2024-02-14T08:51:13;143.00;;;56.03;;
46753;SDS011;32500;50.620;3.400;2024-02-14T08:53:38;144.52;;;56.08;;
46753;SDS011;32500;50.620;3.400;2024-02-14T08:56:04;142.60;;;55.80;;
46753;SDS011;32500;50.620;3.400;2024-02-14T08:58:30;142.07;;;56.08;;
46753;SDS011;32500;50.620;3.400;2024-02-14T09:00:55;142.73;;;55.90;;
46753;SDS011;32500;50.620;3.400;2024-02-14T09:03:21;145.70;;;56.13;;
46753;SDS011;32500;50.620;3.400;2024-02-14T09:05:47;144.85;;;56.15;;
46753;SDS011;32500;50.620;3.400;2024-02-14T09:08:14;143.18;;;55.60;;
46753;SDS011;32500;50.620;3.400;2024-02-14T09:10:39;143.40;;;55.92;;
46753;SDS011;32500;50.620;3.400;2024-02-14T09:13:05;144.23;;;56.08;;
46753;SDS011;32500;50.620;3.400;2024-02-14T09:15:32;141.60;;;55.40;;
46753;SDS011;32500;50.620;3.400;2024-02-14T09:17:58;141.00;;;55.88;;
46753;SDS011;32500;50.620;3.400;2024-02-14T09:20:25;144.75;;;55.78;;
46753;SDS011;32500;50.620;3.400;2024-02-14T09:22:51;142.55;;;56.30;;
46753;SDS011;32500;50.620;3.400;2024-02-14T09:25:18;144.13;;;56.00;;
46753;SDS011;32500;50.620;3.400;2024-02-14T09:27:44;142.35;;;56.05;;
46753;SDS011;32500;50.620;3.400;2024-02-14T09:30:12;145.07;;;56.55;;
46753;SDS011;32500;50.620;3.400;2024-02-14T09:32:38;147.65;;;55.75;;
46753;SDS011;32500;50.620;3.400;2024-02-14T09:35:03;142.95;;;56.17;;
46753;SDS011;32500;50.620;3.400;2024-02-14T09:37:32;143.10;;;55.97;;
46753;SDS011;32500;50.620;3.400;2024-02-14T09:39:58;144.02;;;55.65;;
46753;SDS011;32500;50.620;3.400;2024-02-14T09:42:36;143.15;;;55.75;;
46753;SDS011;32500;50.620;3.400;2024-02-14T09:45:05;141.40;;;55.80;;
46753;SDS011;32500;50.620;3.400;2024-02-14T09:47:32;143.82;;;56.53;;
46753;SDS011;32500;50.620;3.400;2024-02-14T09:49:58;142.68;;;56.47;;
46753;SDS011;32500;50.620;3.400;2024-02-14T09:52:26;144.95;;;56.03;;
46753;SDS011;32500;50.620;3.400;2024-02-14T09:54:52;145.75;;;55.85;;
46753;SDS011;32500;50.620;3.400;2024-02-14T09:57:19;142.93;;;56.00;;
46753;SDS011;32500;50.620;3.400;2024-02-14T09:59:45;144.18;;;56.03;;
46753;SDS011;32500;50.620;3.400;2024-02-14T10:02:13;142.10;;;56.22;;
46753;SDS011;32500;50.620;3.400;2024-02-14T10:04:39;143.60;;;56.08;;
46753;SDS011;32500;50.620;3.400;2024-02-14T10:07:05;142.23;;;55.72;;
46753;SDS011;32500;50.620;3.400;2024-02-14T10:09:30;142.10;;;56.05;;
46753;SDS011;32500;50.620;3.400;2024-02-14T10:12:04;143.10;;;56.30;;
46753;SDS011;32500;50.620;3.400;2024-02-14T10:14:30;141.52;;;55.92;;
46753;SDS011;32500;50.620;3.400;2024-02-14T10:16:56;140.73;;;55.53;;
46753;SDS011;32500;50.620;3.400;2024-02-14T10:19:22;144.82;;;55.83;;
46753;SDS011;32500;50.620;3.400;2024-02-14T10:21:55;139.75;;;55.38;;
46753;SDS011;32500;50.620;3.400;2024-02-14T10:24:24;140.40;;;55.40;;
46753;SDS011;32500;50.620;3.400;2024-02-14T10:26:53;141.87;;;55.87;;
46753;SDS011;32500;50.620;3.400;2024-02-14T10:29:19;142.00;;;55.47;;
46753;SDS011;32500;50.620;3.400;2024-02-14T10:31:48;141.57;;;55.95;;
46753;SDS011;32500;50.620;3.400;2024-02-14T10:34:14;142.15;;;55.75;;
46753;SDS011;32500;50.620;3.400;2024-02-14T10:36:40;142.13;;;55.55;;
46753;SDS011;32500;50.620;3.400;2024-02-14T10:39:09;143.77;;;55.97;;
46753;SDS011;32500;50.620;3.400;2024-02-14T10:41:36;141.30;;;55.63;;
46753;SDS011;32500;50.620;3.400;2024-02-14T10:44:02;152.52;;;56.15;;
46753;SDS011;32500;50.620;3.400;2024-02-14T10:46:31;146.48;;;55.80;;
46753;SDS011;32500;50.620;3.400;2024-02-14T10:48:59;142.35;;;56.15;;
46753;SDS011;32500;50.620;3.400;2024-02-14T10:51:30;141.77;;;55.70;;
46753;SDS011;32500;50.620;3.400;2024-02-14T10:53:57;144.18;;;55.55;;
46753;SDS011;32500;50.620;3.400;2024-02-14T10:56:27;143.82;;;56.13;;
46753;SDS011;32500;50.620;3.400;2024-02-14T10:58:55;141.55;;;55.88;;
46753;SDS011;32500;50.620;3.400;2024-02-14T11:01:25;143.67;;;56.20;;
46753;SDS011;32500;50.620;3.400;2024-02-14T11:03:53;143.95;;;55.90;;
46753;SDS011;32500;50.620;3.400;2024-02-14T11:06:21;141.48;;;56.00;;
46753;SDS011;32500;50.620;3.400;2024-02-14T11:11:42;141.63;;;56.03;;
46753;SDS011;32500;50.620;3.400;2024-02-14T11:14:15;143.73;;;55.83;;
46753;SDS011;32500;50.620;3.400;2024-02-14T11:16:44;141.77;;;55.95;;
46753;SDS011;32500;50.620;3.400;2024-02-14T11:19:12;142.75;;;55.95;;
46753;SDS011;32500;50.620;3.400;2024-02-14T11:21:42;142.27;;;55.97;;
46753;SDS011;32500;50.620;3.400;2024-02-14T11:24:13;143.88;;;55.88;;
46753;SDS011;32500;50.620;3.400;2024-02-14T11:26:47;143.10;;;56.13;;
46753;SDS011;32500;50.620;3.400;2024-02-14T11:29:14;142.13;;;56.13;;
46753;SDS011;32500;50.620;3.400;2024-02-14T11:31:46;142.55;;;55.70;;
46753;SDS011;32500;50.620;3.400;2024-02-14T11:34:15;141.40;;;55.72;;
46753;SDS011;32500;50.620;3.400;2024-02-14T11:36:41;144.68;;;56.25;;
46753;SDS011;32500;50.620;3.400;2024-02-14T11:39:07;142.40;;;55.63;;
46753;SDS011;32500;50.620;3.400;2024-02-14T11:41:33;141.45;;;55.67;;
46753;SDS011;32500;50.620;3.400;2024-02-14T11:44:03;142.13;;;55.83;;
46753;SDS011;32500;50.620;3.400;2024-02-14T11:46:32;142.90;;;55.90;;
46753;SDS011;32500;50.620;3.400;2024-02-14T11:48:59;143.32;;;55.80;;
46753;SDS011;32500;50.620;3.400;2024-02-14T11:51:30;141.10;;;55.80;;
46753;SDS011;32500;50.620;3.400;2024-02-14T11:53:58;147.80;;;56.35;;
46753;SDS011;32500;50.620;3.400;2024-02-14T11:56:30;141.93;;;55.63;;
46753;SDS011;32500;50.620;3.400;2024-02-14T11:58:59;141.50;;;55.65;;
46753;SDS011;32500;50.620;3.400;2024-02-14T12:01:28;140.73;;;55.58;;
46753;SDS011;32500;50.620;3.400;2024-02-14T12:03:56;141.18;;;55.60;;
46753;SDS011;32500;50.620;3.400;2024-02-14T12:06:29;142.88;;;55.47;;
46753;SDS011;32500;50.620;3.400;2024-02-14T12:09:04;142.00;;;55.72;;
46753;SDS011;32500;50.620;3.400;2024-02-14T12:11:35;141.25;;;55.60;;
46753;SDS011;32500;50.620;3.400;2024-02-14T12:14:06;142.40;;;55.97;;
46753;SDS011;32500;50.620;3.400;2024-02-14T12:16:33;142.88;;;55.60;;
46753;SDS011;32500;50.620;3.400;2024-02-14T12:21:36;144.95;;;56.20;;
46753;SDS011;32500;50.620;3.400;2024-02-14T12:24:12;141.80;;;55.72;;
46753;SDS011;32500;50.620;3.400;2024-02-14T12:26:39;141.90;;;55.85;;
46753;SDS011;32500;50.620;3.400;2024-02-14T12:29:06;141.35;;;55.65;;
46753;SDS011;32500;50.620;3.400;2024-02-14T12:31:34;142.05;;;56.40;;
46753;SDS011;32500;50.620;3.400;2024-02-14T12:34:01;143.27;;;56.42;;
46753;SDS011;32500;50.620;3.400;2024-02-14T12:36:30;142.30;;;56.47;;
46753;SDS011;32500;50.620;3.400;2024-02-14T12:38:57;141.25;;;55.92;;
46753;SDS011;32500;50.620;3.400;2024-02-14T12:41:24;144.07;;;56.38;;
46753;SDS011;32500;50.620;3.400;2024-02-14T12:43:52;144.30;;;56.20;;
46753;SDS011;32500;50.620;3.400;2024-02-14T12:46:18;143.60;;;56.30;;
46753;SDS011;32500;50.620;3.400;2024-02-14T12:48:44;141.07;;;56.08;;
46753;SDS011;32500;50.620;3.400;2024-02-14T12:51:10;141.43;;;55.92;;
46753;SDS011;32500;50.620;3.400;2024-02-14T12:53:40;143.50;;;56.17;;
46753;SDS011;32500;50.620;3.400;2024-02-14T12:56:07;146.20;;;56.50;;
46753;SDS011;32500;50.620;3.400;2024-02-14T12:58:33;142.70;;;56.65;;
46753;SDS011;32500;50.620;3.400;2024-02-14T13:00:59;143.43;;;56.40;;
46753;SDS011;32500;50.620;3.400;2024-02-14T13:03:26;143.38;;;56.15;;
46753;SDS011;32500;50.620;3.400;2024-02-14T13:05:52;142.45;;;56.08;;
46753;SDS011;32500;50.620;3.400;2024-02-14T13:08:19;147.35;;;56.08;;
46753;SDS011;32500;50.620;3.400;2024-02-14T13:10:45;143.35;;;56.17;;
46753;SDS011;32500;50.620;3.400;2024-02-14T13:13:11;144.77;;;56.00;;
46753;SDS011;32500;50.620;3.400;2024-02-14T13:15:37;143.70;;;55.70;;
46753;SDS011;32500;50.620;3.400;2024-02-14T13:18:03;143.10;;;56.42;;
46753;SDS011;32500;50.620;3.400;2024-02-14T13:20:29;143.70;;;55.95;;
46753;SDS011;32500;50.620;3.400;2024-02-14T13:22:55;143.07;;;55.83;;
46753;SDS011;32500;50.620;3.400;2024-02-14T13:25:20;142.40;;;56.08;;
46753;SDS011;32500;50.620;3.400;2024-02-14T13:27:46;144.68;;;55.88;;
46753;SDS011;32500;50.620;3.400;2024-02-14T13:30:12;143.38;;;55.95;;
46753;SDS011;32500;50.620;3.400;2024-02-14T13:32:38;143.93;;;56.42;;
46753;SDS011;32500;50.620;3.400;2024-02-14T13:35:04;143.70;;;56.13;;
46753;SDS011;32500;50.620;3.400;2024-02-14T13:37:32;145.20;;;56.30;;
46753;SDS011;32500;50.620;3.400;2024-02-14T13:39:58;144.55;;;56.22;;
46753;SDS011;32500;50.620;3.400;2024-02-14T13:42:29;145.65;;;56.80;;
46753;SDS011;32500;50.620;3.400;2024-02-14T13:44:56;145.85;;;56.33;;
46753;SDS011;32500;50.620;3.400;2024-02-14T13:47:22;144.15;;;56.70;;
46753;SDS011;32500;50.620;3.400;2024-02-14T13:49:50;146.70;;;56.47;;
46753;SDS011;32500;50.620;3.400;2024-02-14T13:52:16;148.88;;;56.83;;
46753;SDS011;32500;50.620;3.400;2024-02-14T13:54:43;149.32;;;56.75;;
46753;SDS011;32500;50.620;3.400;2024-02-14T13:57:09;145.10;;;56.72;;
46753;SDS011;32500;50.620;3.400;2024-02-14T13:59:36;147.75;;;58.00;;
46753;SDS011;32500;50.620;3.400;2024-02-14T14:02:02;149.52;;;58.25;;
46753;SDS011;32500;50.620;3.400;2024-02-14T14:09:29;147.38;;;58.83;;
46753;SDS011;32500;50.620;3.400;2024-02-14T14:11:57;146.80;;;59.03;;
46753;SDS011;32500;50.620;3.400;2024-02-14T14:14:24;146.65;;;58.67;;
46753;SDS011;32500;50.620;3.400;2024-02-14T14:16:52;152.60;;;58.97;;